Ketchikan, AK

4:20 PM AKDT on October 01, 2014 (GMT -0800)
Ketchikan International | Change Station
CLOSE
Current Station
Airport
Location: Ketchikan,
Elevation: 95 ft
Nearby Weather Stations

Elev 95 ft 55.36 °N, 131.71 °W | Updated 27 minutes ago

Mostly Cloudy
Mostly Cloudy
55 °F
Feels Like 55 °F
N
4
Wind Variable Wind from South

Today
High -- | Low -- °F
--% Chance of Precip.
Yesterday
High -- | Low -- °F
Precip. -- in
6:49 AM 6:21 PM
First Quarter, 52% visible
Pressure 30.03 in
Visibility 10.0 miles
Clouds Scattered Clouds 2500 ft
Mostly Cloudy 7000 ft
Dew Point 45 °F
Humidity 69%
Rainfall 0.12 in
Snow Depth 5 in , 77 in , 23 in
UV 1 out of 12
Pollen Not available.
Air Quality Not available.
Flu Activity Not available.
METAR PAKT 302353Z 19003KT 10SM SCT025 BKN070 13/07 A3002 RMK AO2 SLP167 60010 T01280072 10144 20117 50007

More Conditions Fewer Conditions

Pressure 30.03 in
Visibility 10.0 miles
Clouds Scattered Clouds 2500 ft
Mostly Cloudy 7000 ft
Dew Point 45 °F
Humidity 69%
Rainfall 0.12 in
Snow Depth 5 in , 77 in , 23 in
UV 1 out of 12
Pollen Not available.
Air Quality Not available.
Flu Activity Not available.
METAR PAKT 302353Z 19003KT 10SM SCT025 BKN070 13/07 A3002 RMK AO2 SLP167 60010 T01280072 10144 20117 50007

More Conditions Fewer Conditions

10-Day Weather Forecast

Almanac

Astronomy

Oct. 01, 2014 Rise Set
Actual Time 6:49 AM AKDT 6:21 PM AKDT
Civil Twilight 6:13 AM AKDT 6:58 PM AKDT
Nautical Twilight 5:30 AM AKDT 7:40 PM AKDT
Astronomical Twilight 4:46 AM AKDT 8:24 PM AKDT
Moon 2:40 PM AKDT (10/1) 11:19 PM AKDT (10/1)
Length of Visible Light 12h 44m
Length of Day
11h 32m
Tomorrow will be 4m 31s shorter.
First Quarter, 52% of the Moon is Illuminated
Today
First Quarter
Oct 8
Full
Oct 15
Last Quarter
Oct 23
New
Oct 30
First Quarter

Today's Extremes

State Highs State Lows

Community

WunderPhotos

Upload Photos

1,758,097 photos uploaded!

WunderBlogs® & News

Nearby

Snow Depth

Station Depth Elevation
Munson Ridge 5 in 3100 ft
Eagle Summit 77 in 3650 ft
Grandview 23 in 1100 ft
Susitna Valley High 1 in 375 ft
MF Bradley River 1 in 2300 ft

Earthquake Activity

City Distance Mag. Time & Date
No recent earthquake activity has been reported nearby.
Minimum magnitude displayed is 2.5.

Coastal Water Temperatures

Place Temperature
No Stations Reporting

Nearby Weather Stations